Time;durP1;ratioP1;P1;durP2;ratioP2;P2;SDS_P1;SDS_P2;PMS_P1;PMS_P2;Temp;Humidity;BMP_temperature;BMP_pressure;BME280_temperature;BME280_humidity;BME280_pressure;Samples;Min_cycle;Max_cycle;Signal;HPM_P1;HPM_P2
2022/06/06 00:00:15;;;;;;;82.00;34.22;;;;;;;15.03;100.00;101187.66;5052496;28;20036;-71
2022/06/06 00:02:45;;;;;;;82.63;34.03;;;;;;;15.05;100.00;101198.13;5052404;28;20053;-72
2022/06/06 00:05:15;;;;;;;73.20;34.42;;;;;;;14.93;100.00;101186.72;5051910;28;20056;-71
2022/06/06 00:07:44;;;;;;;71.88;34.20;;;;;;;14.90;100.00;101196.69;5051658;28;20080;-71
2022/06/06 00:10:12;;;;;;;68.38;35.03;;;;;;;14.76;100.00;101192.47;5051784;28;20040;-71
2022/06/06 00:12:40;;;;;;;63.75;33.70;;;;;;;14.66;100.00;101193.16;5051846;28;20124;-71
2022/06/06 00:15:11;;;;;;;55.50;31.85;;;;;;;14.67;100.00;101188.72;5051880;28;20060;-71
2022/06/06 00:17:41;;;;;;;51.67;30.42;;;;;;;14.69;100.00;101190.28;5048613;28;20439;-71
2022/06/06 00:20:10;;;;;;;48.67;28.67;;;;;;;14.58;100.00;101192.06;5048963;28;20045;-71
2022/06/06 00:22:38;;;;;;;47.67;28.58;;;;;;;14.56;100.00;101192.16;5051712;28;20083;-71
2022/06/06 00:25:07;;;;;;;52.42;27.75;;;;;;;14.57;100.00;101190.34;5050309;28;20568;-71
2022/06/06 00:27:35;;;;;;;45.28;26.55;;;;;;;14.61;100.00;101186.50;5051306;28;20053;-71
2022/06/06 00:30:04;;;;;;;45.47;27.00;;;;;;;14.53;100.00;101189.75;5051195;28;20048;-70
2022/06/06 00:35:20;;;;;;;42.00;24.27;;;;;;;14.51;100.00;101189.03;5049088;28;20059;-71
2022/06/06 00:37:49;;;;;;;41.65;23.88;;;;;;;14.52;100.00;101182.78;5050505;28;20068;-70
2022/06/06 00:40:20;;;;;;;34.17;20.60;;;;;;;14.47;100.00;101185.75;5051418;28;20561;-70
2022/06/06 00:42:48;;;;;;;35.40;20.08;;;;;;;14.47;100.00;101195.50;5051087;28;20049;-70
2022/06/06 00:45:25;;;;;;;33.45;18.65;;;;;;;14.44;100.00;101185.13;5051355;28;20373;-71
2022/06/06 00:47:58;;;;;;;34.95;19.10;;;;;;;14.48;100.00;101187.47;5051415;28;20139;-71
2022/06/06 00:50:34;;;;;;;30.85;17.52;;;;;;;14.46;100.00;101193.81;5051167;28;20421;-70
2022/06/06 00:53:04;;;;;;;35.47;18.83;;;;;;;14.51;100.00;101191.69;5050854;28;20049;-70
2022/06/06 00:55:39;;;;;;;32.55;19.33;;;;;;;14.44;100.00;101191.28;5047587;28;20059;-71
2022/06/06 00:58:11;;;;;;;35.95;19.67;;;;;;;14.50;100.00;101192.63;5048620;28;20522;-70
2022/06/06 01:00:40;;;;;;;42.15;21.70;;;;;;;14.56;100.00;101189.53;5051277;28;20565;-70
2022/06/06 01:03:11;;;;;;;38.55;21.00;;;;;;;14.54;100.00;101188.78;5051501;28;20049;-70
2022/06/06 01:05:42;;;;;;;42.55;22.02;;;;;;;14.51;100.00;101186.38;5051118;28;20045;-70
2022/06/06 01:08:12;;;;;;;40.55;22.33;;;;;;;14.55;100.00;101193.13;5051101;28;20049;-70
2022/06/06 01:10:40;;;;;;;40.60;21.67;;;;;;;14.51;100.00;101191.69;5048235;28;20124;-71
2022/06/06 01:13:10;;;;;;;37.28;20.40;;;;;;;14.52;100.00;101196.00;5047381;28;20049;-71
2022/06/06 01:15:53;;;;;;;38.05;20.40;;;;;;;14.46;100.00;101194.66;5048443;28;20051;-71
2022/06/06 01:18:32;;;;;;;34.60;19.40;;;;;;;14.55;100.00;101198.41;5050929;28;20126;-70
2022/06/06 01:21:28;;;;;;;34.50;18.50;;;;;;;14.52;100.00;101194.19;5050975;28;20045;-71
2022/06/06 01:24:15;;;;;;;32.50;17.55;;;;;;;14.46;100.00;101189.34;5050922;28;20052;-71
2022/06/06 01:26:55;;;;;;;35.63;18.75;;;;;;;14.52;100.00;101193.38;5047930;28;20044;-71
2022/06/06 01:29:28;;;;;;;34.20;17.30;;;;;;;14.50;100.00;101200.56;5047545;28;20053;-70
2022/06/06 01:32:00;;;;;;;32.75;16.77;;;;;;;14.45;100.00;101200.94;5051965;28;20471;-71
2022/06/06 01:34:32;;;;;;;32.53;17.35;;;;;;;14.50;100.00;101205.84;5050940;28;20041;-70
2022/06/06 01:37:02;;;;;;;32.85;17.92;;;;;;;14.46;100.00;101207.88;5047328;28;20047;-70
2022/06/06 01:39:32;;;;;;;31.60;18.13;;;;;;;14.46;100.00;101199.94;5048134;28;20047;-70
2022/06/06 01:42:08;;;;;;;33.25;17.70;;;;;;;14.46;100.00;101196.47;5051002;28;20045;-70
2022/06/06 01:44:43;;;;;;;34.42;19.38;;;;;;;14.37;100.00;101200.66;5066492;28;20052;-70
2022/06/06 01:47:15;;;;;;;37.42;17.90;;;;;;;14.34;100.00;101190.28;5050761;28;20076;-70
2022/06/06 01:49:45;;;;;;;37.22;20.05;;;;;;;14.26;100.00;101192.69;5051022;28;20048;-73
2022/06/06 01:52:16;;;;;;;43.42;22.27;;;;;;;14.31;100.00;101206.41;5049580;28;20051;-73
2022/06/06 01:54:44;;;;;;;40.83;19.42;;;;;;;14.32;100.00;101197.53;5047186;28;20044;-73
2022/06/06 01:57:15;;;;;;;35.85;20.48;;;;;;;14.27;100.00;101202.31;5053075;28;20037;-73
2022/06/06 01:59:45;;;;;;;37.35;19.10;;;;;;;14.27;100.00;101210.25;5054088;28;20044;-73
2022/06/06 02:02:13;;;;;;;36.83;18.65;;;;;;;14.28;100.00;101202.19;5053013;28;20072;-73
2022/06/06 02:04:41;;;;;;;35.30;19.05;;;;;;;14.33;100.00;101194.75;5054114;28;20446;-74
2022/06/06 02:07:09;;;;;;;36.55;18.75;;;;;;;14.36;100.00;101194.50;5054290;28;20416;-74
2022/06/06 02:09:38;;;;;;;35.40;19.50;;;;;;;14.37;100.00;101187.44;5054218;28;20045;-74
2022/06/06 02:12:09;;;;;;;38.50;18.67;;;;;;;14.40;100.00;101187.19;5051743;28;20045;-74
2022/06/06 02:14:38;;;;;;;36.53;19.77;;;;;;;14.39;100.00;101190.78;5047966;28;20503;-74
2022/06/06 02:17:08;;;;;;;36.35;20.00;;;;;;;14.47;100.00;101192.88;5052712;28;20475;-74
2022/06/06 02:19:37;;;;;;;41.60;20.77;;;;;;;14.44;100.00;101191.28;5054098;28;20443;-71
2022/06/06 02:22:05;;;;;;;41.75;19.63;;;;;;;14.51;100.00;101192.50;5053932;28;20044;-71
2022/06/06 02:24:33;;;;;;;40.72;21.75;;;;;;;14.47;100.00;101188.41;5050534;28;20093;-71
2022/06/06 02:27:01;;;;;;;38.40;20.40;;;;;;;14.48;100.00;101189.25;5050146;28;20053;-71
2022/06/06 02:29:29;;;;;;;42.95;21.80;;;;;;;14.53;100.00;101187.09;5053531;28;20053;-71
2022/06/06 02:31:57;;;;;;;43.25;22.70;;;;;;;14.52;100.00;101188.06;5053605;28;20514;-71
2022/06/06 02:34:27;;;;;;;47.58;24.80;;;;;;;14.48;100.00;101182.16;5053593;28;20496;-71
2022/06/06 02:36:55;;;;;;;46.20;22.40;;;;;;;14.52;100.00;101177.50;5052338;28;20080;-72
2022/06/06 02:39:23;;;;;;;42.42;23.90;;;;;;;14.51;100.00;101179.28;5053402;28;20045;-71
2022/06/06 02:41:51;;;;;;;46.47;23.77;;;;;;;14.58;100.00;101181.47;5069032;28;20048;-71
2022/06/06 02:44:19;;;;;;;42.03;23.20;;;;;;;14.54;100.00;101180.84;5053624;28;20072;-70
2022/06/06 02:46:48;;;;;;;41.50;22.77;;;;;;;14.54;100.00;101179.03;5053366;28;20061;-71
2022/06/06 02:49:16;;;;;;;41.72;22.30;;;;;;;14.54;100.00;101175.56;5053471;28;20045;-70
2022/06/06 02:51:45;;;;;;;42.25;22.40;;;;;;;14.48;100.00;101170.72;5053126;28;20048;-71
2022/06/06 02:54:13;;;;;;;36.83;20.27;;;;;;;14.52;100.00;101173.03;5053398;28;20124;-71
2022/06/06 02:56:41;;;;;;;41.55;20.95;;;;;;;14.56;100.00;101170.13;5053560;28;20068;-71
2022/06/06 02:59:11;;;;;;;37.92;22.65;;;;;;;14.50;100.00;101167.00;5053368;28;20060;-71
2022/06/06 03:01:39;;;;;;;45.65;22.77;;;;;;;14.51;100.00;101178.44;5053640;28;20076;-71
2022/06/06 03:04:07;;;;;;;37.85;21.85;;;;;;;14.51;100.00;101175.78;5053162;28;20041;-71
2022/06/06 03:06:47;;;;;;;40.28;22.13;;;;;;;14.48;100.00;101170.72;5052464;28;20083;-71
2022/06/06 03:09:29;;;;;;;43.65;22.67;;;;;;;14.55;100.00;101169.31;5053162;28;20043;-71
2022/06/06 03:12:12;;;;;;;40.53;21.25;;;;;;;14.56;100.00;101165.72;5053071;28;20411;-71
2022/06/06 03:14:52;;;;;;;;;;;;;;;14.53;100.00;101153.56;5053330;28;20094;-71
2022/06/06 03:20:47;;;;;;;42.55;21.02;;;;;;;14.58;100.00;101155.81;5052866;28;20056;-70
2022/06/06 03:23:27;;;;;;;42.08;20.55;;;;;;;14.61;100.00;101154.75;5052766;28;20106;-71
2022/06/06 03:26:05;;;;;;;38.30;21.40;;;;;;;14.57;100.00;101158.59;5052750;28;20048;-70
2022/06/06 03:28:41;;;;;;;39.47;20.80;;;;;;;14.54;100.00;101167.63;5052549;28;20041;-70
2022/06/06 03:31:18;;;;;;;39.47;22.60;;;;;;;14.59;100.00;101154.00;5052712;28;20044;-70
2022/06/06 03:33:58;;;;;;;36.70;20.67;;;;;;;14.59;100.00;101159.31;5052723;28;20131;-71
2022/06/06 03:36:34;;;;;;;40.70;21.13;;;;;;;14.62;100.00;101169.69;5052532;28;20056;-70
2022/06/06 03:39:12;;;;;;;40.33;21.67;;;;;;;14.61;100.00;101166.16;5052414;28;20400;-71
2022/06/06 03:41:55;;;;;;;38.08;21.15;;;;;;;14.61;100.00;101163.53;5052639;28;20048;-71
2022/06/06 03:44:35;;;;;;;38.70;20.60;;;;;;;14.70;100.00;101162.03;5052335;28;20045;-70
2022/06/06 03:47:12;;;;;;;38.80;19.35;;;;;;;14.65;100.00;101165.00;5052358;28;20053;-71
2022/06/06 03:49:50;;;;;;;36.90;18.95;;;;;;;14.69;100.00;101162.97;5052235;28;20060;-71
2022/06/06 03:52:27;;;;;;;34.00;18.35;;;;;;;14.69;100.00;101169.09;5052616;28;20048;-71
2022/06/06 03:55:02;;;;;;;32.75;18.08;;;;;;;14.69;100.00;101171.75;5051151;28;20076;-70
2022/06/06 03:57:35;;;;;;;32.85;17.40;;;;;;;14.66;100.00;101169.34;5052338;28;20052;-70
2022/06/06 04:00:12;;;;;;;30.58;17.13;;;;;;;14.64;100.00;101167.78;5052350;28;20443;-70
2022/06/06 04:02:42;;;;;;;32.10;17.50;;;;;;;14.64;100.00;101166.00;5051998;28;20540;-70
2022/06/06 04:05:12;;;;;;;34.45;17.20;;;;;;;14.64;100.00;101171.28;5051942;28;20053;-71
2022/06/06 04:07:41;;;;;;;31.27;16.90;;;;;;;14.67;100.00;101173.69;5051533;28;20058;-70
2022/06/06 04:10:10;;;;;;;29.05;16.30;;;;;;;14.63;100.00;101179.31;5051965;28;20053;-71
2022/06/06 04:13:10;;;;;;;30.48;16.52;;;;;;;14.59;100.00;101178.69;5051620;28;20053;-70
2022/06/06 04:15:50;;;;;;;29.95;16.40;;;;;;;14.61;100.00;101176.75;5051811;28;20052;-70
2022/06/06 04:18:27;;;;;;;33.00;17.13;;;;;;;14.66;100.00;101177.28;5051101;28;20048;-71
2022/06/06 04:21:10;;;;;;;33.75;17.40;;;;;;;14.61;100.00;101179.41;5051955;28;20060;-71
2022/06/06 04:24:05;;;;;;;36.10;20.13;;;;;;;14.59;100.00;101183.13;5051549;28;20059;-70
2022/06/06 04:26:42;;;;;;;38.05;21.95;;;;;;;14.52;100.00;101174.84;5051363;28;20107;-71
2022/06/06 04:29:21;;;;;;;44.45;23.17;;;;;;;14.47;100.00;101177.00;5050128;28;20103;-71
2022/06/06 04:31:57;;;;;;;44.88;25.58;;;;;;;14.51;100.00;101183.72;5051499;28;20033;-71
2022/06/06 04:34:30;;;;;;;46.30;25.83;;;;;;;14.52;100.00;101186.25;5051474;28;20483;-71
2022/06/06 04:37:06;;;;;;;50.90;27.45;;;;;;;14.56;100.00;101186.88;5051396;28;20056;-71
2022/06/06 04:39:43;;;;;;;51.72;27.10;;;;;;;14.51;100.00;101187.22;5050097;28;20045;-69
2022/06/06 04:42:17;;;;;;;50.55;28.85;;;;;;;14.56;100.00;101200.13;5051443;28;20048;-70
2022/06/06 04:44:54;;;;;;;49.20;28.77;;;;;;;14.50;100.00;101195.28;5050087;28;20118;-70
2022/06/06 04:47:32;;;;;;;50.30;27.75;;;;;;;14.57;100.00;101204.41;5051353;28;20053;-70
2022/06/06 04:50:06;;;;;;;45.13;25.65;;;;;;;14.51;100.00;101200.44;5051502;28;20076;-70
2022/06/06 04:52:37;;;;;;;39.83;24.25;;;;;;;14.57;100.00;101195.66;5050889;28;20037;-72
2022/06/06 04:55:08;;;;;;;40.95;24.40;;;;;;;14.50;100.00;101197.91;5051378;28;20136;-70
2022/06/06 04:57:38;;;;;;;39.30;24.50;;;;;;;14.45;100.00;101195.63;5050983;28;20049;-70
2022/06/06 05:00:10;;;;;;;40.30;25.25;;;;;;;14.50;100.00;101208.50;5051489;28;20495;-71
2022/06/06 05:02:38;;;;;;;41.30;24.77;;;;;;;14.51;100.00;101208.38;5051134;28;20087;-70
2022/06/06 05:05:07;;;;;;;42.78;24.85;;;;;;;14.51;100.00;101207.56;5051338;28;20453;-70
2022/06/06 05:07:51;;;;;;;40.05;25.20;;;;;;;14.43;100.00;101202.84;5050737;28;20059;-70
2022/06/06 05:10:29;;;;;;;39.63;24.42;;;;;;;14.47;100.00;101206.09;5049821;28;20059;-71
2022/06/06 05:13:15;;;;;;;40.20;24.83;;;;;;;14.44;100.00;101219.53;5051061;28;20391;-71
2022/06/06 05:15:57;;;;;;;39.67;25.63;;;;;;;14.50;100.00;101221.72;5049453;28;20053;-70
2022/06/06 05:18:57;;;;;;;40.97;25.38;;;;;;;14.50;100.00;101216.44;5051026;28;20049;-71
2022/06/06 05:21:38;;;;;;;41.92;27.20;;;;;;;14.51;100.00;101218.97;5050917;28;20395;-71
2022/06/06 05:24:30;;;;;;;42.58;26.98;;;;;;;14.47;100.00;101219.34;5049522;28;20051;-71
2022/06/06 05:27:35;;;;;;;41.55;26.73;;;;;;;14.43;100.00;101224.00;5050970;28;20052;-71
2022/06/06 05:30:09;;;;;;;41.33;27.35;;;;;;;14.40;100.00;101232.19;5053341;28;20500;-71
2022/06/06 05:32:55;;;;;;;38.58;23.95;;;;;;;14.35;100.00;101229.03;5054721;28;20045;-71
2022/06/06 05:35:34;;;;;;;37.40;23.63;;;;;;;14.45;100.00;101224.75;5054853;28;20041;-71
2022/06/06 05:38:17;;;;;;;38.05;24.00;;;;;;;14.59;100.00;101226.34;5054877;28;20127;-71
2022/06/06 05:40:55;;;;;;;32.70;21.00;;;;;;;14.76;100.00;101224.22;5054613;28;20115;-72
2022/06/06 05:43:36;;;;;;;33.80;20.95;;;;;;;14.78;100.00;101214.34;5054777;28;20499;-71
2022/06/06 05:46:15;;;;;;;32.15;19.50;;;;;;;14.81;100.00;101219.44;5054813;28;20079;-72
2022/06/06 05:49:03;;;;;;;31.27;20.63;;;;;;;14.86;100.00;101219.91;5054483;28;20099;-72
2022/06/06 05:51:44;;;;;;;28.42;18.85;;;;;;;14.89;100.00;101232.91;5054326;28;20056;-71
2022/06/06 05:54:23;;;;;;;24.38;17.00;;;;;;;14.94;100.00;101230.72;5054605;28;20056;-71
2022/06/06 05:57:14;;;;;;;22.70;14.98;;;;;;;15.00;100.00;101234.75;5054444;28;20053;-71
2022/06/06 06:00:04;;;;;;;21.27;14.48;;;;;;;15.10;100.00;101234.84;5054134;28;20409;-71
2022/06/06 06:03:05;;;;;;;18.15;11.63;;;;;;;15.12;100.00;101232.91;5054224;28;20037;-70
2022/06/06 06:05:48;;;;;;;15.75;9.80;;;;;;;14.97;100.00;101232.31;5054000;28;20048;-70
2022/06/06 06:08:30;;;;;;;13.88;9.02;;;;;;;15.00;100.00;101242.69;5054161;28;20432;-70
2022/06/06 06:11:12;;;;;;;13.45;9.27;;;;;;;15.02;100.00;101254.00;5054311;28;20045;-70
2022/06/06 06:13:51;;;;;;;16.15;8.55;;;;;;;15.11;100.00;101247.16;5053994;28;20048;-70
2022/06/06 06:16:22;;;;;;;12.27;7.80;;;;;;;15.19;100.00;101250.88;5054151;28;20582;-71
2022/06/06 06:18:57;;;;;;;13.10;9.38;;;;;;;15.15;100.00;101259.19;5054010;28;20939;-70
2022/06/06 06:21:30;;;;;;;18.63;10.40;;;;;;;15.16;100.00;101255.56;5054314;28;20049;-71
2022/06/06 06:24:03;;;;;;;18.38;12.25;;;;;;;15.14;100.00;101257.50;5054021;28;20044;-71
2022/06/06 06:26:32;;;;;;;19.60;12.73;;;;;;;14.98;100.00;101261.34;5053767;28;20051;-70
2022/06/06 06:29:02;;;;;;;21.38;12.60;;;;;;;15.12;100.00;101270.88;5054005;28;20071;-71
2022/06/06 06:31:48;;;;;;;20.52;12.88;;;;;;;15.19;100.00;101265.94;5053777;28;20132;-70
2022/06/06 06:34:31;;;;;;;21.38;13.77;;;;;;;15.09;100.00;101273.72;5053819;28;20044;-70
2022/06/06 06:37:14;;;;;;;20.92;14.25;;;;;;;15.13;100.00;101272.53;5053745;28;20053;-70
2022/06/06 06:39:57;;;;;;;20.20;15.90;;;;;;;15.19;100.00;101276.53;5053546;28;20045;-70
2022/06/06 06:42:44;;;;;;;21.35;15.55;;;;;;;15.45;100.00;101279.78;5053015;28;20070;-70
2022/06/06 06:45:17;;;;;;;21.27;14.57;;;;;;;15.44;100.00;101287.84;5053522;28;20521;-71
2022/06/06 06:47:52;;;;;;;21.42;14.88;;;;;;;15.49;100.00;101294.47;5053389;28;20045;-71
2022/06/06 06:50:23;;;;;;;18.85;10.95;;;;;;;15.48;100.00;101298.09;5053325;28;20064;-71
2022/06/06 06:53:13;;;;;;;14.63;10.27;;;;;;;15.49;100.00;101288.34;5053346;28;20102;-70
2022/06/06 06:55:50;;;;;;;13.23;8.40;;;;;;;15.56;100.00;101292.19;5053090;28;20071;-70
2022/06/06 06:58:35;;;;;;;16.13;9.43;;;;;;;15.72;100.00;101300.59;5053398;28;20051;-70
2022/06/06 07:01:06;;;;;;;13.88;9.23;;;;;;;15.75;100.00;101298.66;5053176;28;20045;-70
2022/06/06 07:09:53;;;;;;;16.30;8.95;;;;;;;15.96;100.00;101304.09;5052947;28;20041;-70
2022/06/06 07:12:34;;;;;;;19.92;8.95;;;;;;;16.07;100.00;101304.06;5052955;28;20612;-70
2022/06/06 07:15:25;;;;;;;11.35;8.05;;;;;;;16.13;99.63;101300.06;5053025;28;20064;-70
2022/06/06 07:17:59;;;;;;;12.50;8.32;;;;;;;16.08;98.50;101304.91;5053111;28;20162;-70
2022/06/06 07:20:29;;;;;;;12.77;7.43;;;;;;;16.17;97.30;101299.69;5052920;28;20041;-70
2022/06/06 07:23:03;;;;;;;13.75;8.15;;;;;;;16.17;99.20;101298.84;5052760;28;20476;-70
2022/06/06 07:25:38;;;;;;;14.10;7.93;;;;;;;16.52;99.34;101293.31;5052994;28;20076;-70
2022/06/06 07:28:08;;;;;;;13.52;7.45;;;;;;;16.64;96.79;101302.03;5052948;28;20069;-70
2022/06/06 07:30:41;;;;;;;12.68;7.80;;;;;;;16.72;95.85;101301.41;5052512;28;20052;-70
2022/06/06 07:33:21;;;;;;;12.27;7.32;;;;;;;16.94;96.88;101307.59;5052792;28;20041;-71
2022/06/06 07:36:04;;;;;;;11.25;7.28;;;;;;;17.07;92.25;101297.59;5052768;28;20049;-71
2022/06/06 07:38:38;;;;;;;;;;;;;;;17.24;94.81;101299.63;5053298;28;20045;-71
2022/06/06 07:41:23;;;;;;;10.48;6.57;;;;;;;17.42;91.47;101296.34;5053178;28;20371;-70
2022/06/06 07:44:13;;;;;;;8.40;5.50;;;;;;;17.63;88.69;101298.09;5052808;28;20052;-71
2022/06/06 07:46:53;;;;;;;10.20;5.35;;;;;;;17.77;87.46;101304.88;5052415;28;20060;-71
2022/06/06 07:49:29;;;;;;;9.60;5.68;;;;;;;17.97;84.25;101301.31;5052461;28;20094;-71
2022/06/06 07:52:06;;;;;;;11.30;5.75;;;;;;;18.21;85.94;101308.06;5052015;28;20092;-70
2022/06/06 07:54:42;;;;;;;7.82;4.95;;;;;;;18.18;83.08;101303.03;5051847;28;20041;-69
2022/06/06 07:57:22;;;;;;;8.82;4.55;;;;;;;18.36;82.96;101311.16;5052503;28;20107;-70
2022/06/06 08:00:00;;;;;;;7.30;4.32;;;;;;;18.55;82.77;101313.81;5052194;28;20504;-70
2022/06/06 08:02:42;;;;;;;8.57;4.10;;;;;;;18.63;80.49;101309.63;5052175;28;20380;-70
2022/06/06 08:05:22;;;;;;;6.60;3.17;;;;;;;18.70;77.30;101306.22;5051053;28;20052;-71
2022/06/06 08:08:01;;;;;;;10.68;3.45;;;;;;;18.82;78.35;101314.91;5052348;28;20056;-70
2022/06/06 08:10:37;;;;;;;6.95;2.20;;;;;;;19.01;73.89;101311.41;5052332;28;20136;-71
2022/06/06 08:13:33;;;;;;;5.85;2.03;;;;;;;18.82;71.59;101308.75;5052190;28;20041;-71
2022/06/06 08:16:13;;;;;;;6.30;2.05;;;;;;;19.28;74.36;101311.59;5052533;28;20042;-70
2022/06/06 08:18:58;;;;;;;5.63;2.30;;;;;;;19.43;75.06;101305.66;5052142;28;20053;-70
2022/06/06 08:21:33;;;;;;;5.82;2.80;;;;;;;19.27;71.37;101302.78;5048993;28;20484;-70
2022/06/06 08:24:04;;;;;;;6.75;3.30;;;;;;;19.24;74.53;101316.41;5049560;28;20499;-70
2022/06/06 08:26:54;;;;;;;6.97;3.22;;;;;;;18.93;74.10;101316.63;5052069;28;20057;-70
2022/06/06 08:29:23;;;;;;;6.85;3.22;;;;;;;18.84;73.54;101325.44;5051823;28;20060;-70
2022/06/06 08:31:52;;;;;;;7.15;3.35;;;;;;;18.93;73.85;101316.63;5052087;28;20459;-70
2022/06/06 08:34:21;;;;;;;7.45;3.60;;;;;;;18.92;73.03;101318.44;5051615;28;20379;-70
2022/06/06 08:37:10;;;;;;;7.88;3.10;;;;;;;18.93;73.79;101313.94;5051670;28;20045;-70
2022/06/06 08:39:59;;;;;;;5.90;3.08;;;;;;;18.35;72.27;101320.97;5051709;28;20055;-70
2022/06/06 08:42:42;;;;;;;7.65;3.15;;;;;;;18.65;75.80;101318.28;5051742;28;20522;-71
2022/06/06 08:45:27;;;;;;;8.27;3.40;;;;;;;18.81;72.90;101310.56;5051847;28;20045;-70
2022/06/06 08:48:02;;;;;;;8.57;3.10;;;;;;;18.75;73.16;101322.63;5051700;28;20060;-70
2022/06/06 08:50:50;;;;;;;4.65;2.50;;;;;;;18.81;71.06;101309.72;5051633;28;20060;-70
2022/06/06 08:54:12;;;;;;;5.80;2.83;;;;;;;19.21;69.81;101306.88;5048297;28;20049;-71
2022/06/06 08:57:10;;;;;;;4.65;2.22;;;;;;;19.05;69.20;101317.28;5050812;28;20136;-70
2022/06/06 09:00:05;;;;;;;5.60;2.60;;;;;;;19.29;69.26;101313.28;5051224;28;20041;-70
2022/06/06 09:03:12;;;;;;;5.32;2.28;;;;;;;19.36;70.12;101303.72;5051239;28;20067;-70
2022/06/06 09:06:17;;;;;;;7.72;2.30;;;;;;;19.36;69.72;101309.03;5049541;28;20053;-72
2022/06/06 09:09:22;;;;;;;4.65;2.17;;;;;;;19.76;69.30;101306.03;5011535;28;20046;-71
2022/06/06 09:12:23;;;;;;;6.07;2.08;;;;;;;20.03;69.95;101303.56;5011257;28;20061;-69
2022/06/06 09:15:24;;;;;;;5.32;2.08;;;;;;;20.27;68.48;101310.94;5007767;28;20058;-69
2022/06/06 09:18:31;;;;;;;3.53;1.85;;;;;;;20.25;67.23;101304.94;5006208;28;20056;-69
2022/06/06 09:21:27;;;;;;;4.10;2.05;;;;;;;20.14;67.00;101303.31;5011447;28;20445;-69
2022/06/06 09:24:26;;;;;;;3.33;1.70;;;;;;;19.99;67.76;101300.34;5011381;28;20409;-69
2022/06/06 09:27:16;;;;;;;5.63;1.70;;;;;;;19.84;67.10;101292.00;5011218;28;20408;-70
2022/06/06 09:30:06;;;;;;;3.63;1.65;;;;;;;19.46;66.30;101293.84;5011261;28;20060;-70
2022/06/06 09:33:06;;;;;;;4.40;1.50;;;;;;;19.63;66.36;101302.88;5011252;28;20501;-70
2022/06/06 09:35:58;;;;;;;4.30;1.48;;;;;;;19.45;67.13;101302.00;5011321;28;20050;-70
2022/06/06 09:38:45;;;;;;;4.18;1.58;;;;;;;19.42;67.42;101300.47;5011155;28;20405;-70
2022/06/06 09:41:29;;;;;;;4.68;1.58;;;;;;;19.52;66.97;101297.75;5011273;28;20053;-69
2022/06/06 09:44:03;;;;;;;4.10;1.50;;;;;;;19.40;65.85;101305.94;5011302;28;20389;-70
2022/06/06 09:47:10;;;;;;;3.33;1.38;;;;;;;19.25;65.99;101302.91;5011141;28;20053;-70
2022/06/06 09:50:06;;;;;;;5.60;1.52;;;;;;;18.93;67.27;101300.63;5011109;28;20129;-69
2022/06/06 09:53:08;;;;;;;5.15;1.63;;;;;;;19.02;67.91;101294.44;5011060;28;20504;-70
2022/06/06 09:59:37;;;;;;;3.90;1.70;;;;;;;19.74;69.96;101284.03;4982541;28;20536;-70
2022/06/06 10:02:57;;;;;;;6.22;1.90;;;;;;;19.83;68.21;101284.97;5006381;28;20049;-70
2022/06/06 10:06:04;;;;;;;4.22;1.70;;;;;;;19.97;67.13;101272.94;5010398;28;20038;-69
2022/06/06 10:09:10;;;;;;;4.72;2.13;;;;;;;20.16;67.74;101268.47;5046762;28;20092;-70
2022/06/06 10:12:07;;;;;;;3.80;2.20;;;;;;;20.29;65.05;101250.22;5050496;28;20037;-70
2022/06/06 10:14:57;;;;;;;4.25;2.00;;;;;;;20.39;63.47;101253.63;5043144;28;20395;-71
2022/06/06 10:17:46;;;;;;;6.40;2.10;;;;;;;20.39;62.13;101250.13;5052350;28;20116;-69
2022/06/06 10:20:26;;;;;;;2.35;1.50;;;;;;;20.71;61.95;101257.59;5054243;28;20044;-69
2022/06/06 10:23:12;;;;;;;3.80;1.70;;;;;;;20.43;59.32;101254.16;5054080;28;20063;-73
2022/06/06 10:26:09;;;;;;;4.70;1.90;;;;;;;20.57;60.54;101255.44;5053961;28;20134;-63
2022/06/06 10:29:00;;;;;;;5.80;1.80;;;;;;;20.63;60.60;101251.31;5053715;28;20055;-62
2022/06/06 10:31:50;;;;;;;6.35;2.10;;;;;;;21.08;59.34;101248.44;5053821;28;20403;-63
2022/06/06 10:34:45;;;;;;;3.90;1.70;;;;;;;21.44;60.96;101258.13;5053781;28;20041;-62
2022/06/06 10:37:41;;;;;;;4.10;1.98;;;;;;;21.23;59.69;101247.88;5054264;28;20537;-69
2022/06/06 10:40:31;;;;;;;4.82;1.73;;;;;;;21.02;57.88;101258.94;5051722;28;20574;-69
2022/06/06 10:43:18;;;;;;;6.70;2.08;;;;;;;20.82;57.09;101264.50;5050125;28;20450;-75
2022/06/06 10:45:49;;;;;;;4.95;2.50;;;;;;;20.53;58.90;101252.25;5053541;28;20107;-75
2022/06/06 10:48:32;;;;;;;6.50;2.70;;;;;;;20.91;60.11;101244.88;5053625;28;20049;-75
2022/06/06 10:51:47;;;;;;;6.75;2.58;;;;;;;21.03;59.14;101248.09;5053373;28;20052;-77
2022/06/06 10:54:49;;;;;;;5.90;2.80;;;;;;;20.97;58.68;101242.53;5053371;28;20037;-69
2022/06/06 10:57:47;;;;;;;4.95;2.72;;;;;;;21.22;59.40;101248.84;5050852;28;20045;-74
2022/06/06 11:00:22;;;;;;;5.95;2.70;;;;;;;21.28;58.37;101242.84;5048125;28;20051;-73
2022/06/06 11:03:28;;;;;;;5.10;2.60;;;;;;;21.26;60.12;101244.84;5053262;28;20546;-71
2022/06/06 11:06:25;;;;;;;6.40;3.10;;;;;;;20.94;59.47;101236.53;5052920;28;20056;-69
2022/06/06 11:09:36;;;;;;;8.93;3.50;;;;;;;20.69;62.62;101254.22;5049679;28;20519;-70
2022/06/06 11:12:40;;;;;;;6.25;3.03;;;;;;;20.52;67.34;101263.94;5049521;28;20056;-74
2022/06/06 11:15:09;;;;;;;9.05;3.50;;;;;;;20.18;73.96;101256.63;5053037;28;20043;-72
2022/06/06 11:18:19;;;;;;;7.00;2.90;;;;;;;19.83;72.70;101257.47;5052988;28;20385;-73
2022/06/06 11:21:21;;;;;;;6.38;2.60;;;;;;;19.75;76.36;101251.00;5052693;28;20531;-72
2022/06/06 11:23:54;;;;;;;5.53;3.08;;;;;;;19.61;80.42;101259.53;5052765;28;20051;-72
2022/06/06 11:26:57;;;;;;;6.38;3.28;;;;;;;19.43;79.20;101262.16;5052913;28;20041;-73
2022/06/06 11:29:50;;;;;;;8.40;3.40;;;;;;;19.18;85.01;101255.66;5052781;28;20041;-73
2022/06/06 11:33:05;;;;;;;6.40;3.40;;;;;;;19.62;90.09;101250.53;5051481;28;20060;-72
2022/06/06 11:35:49;;;;;;;6.28;3.20;;;;;;;20.12;94.12;101251.91;4971804;28;20055;-72
2022/06/06 11:38:53;;;;;;;5.40;3.22;;;;;;;20.41;85.78;101250.81;5052719;28;20049;-73
2022/06/06 11:41:34;;;;;;;8.88;2.70;;;;;;;20.24;80.40;101245.31;5052662;28;20399;-72
2022/06/06 11:44:11;;;;;;;6.72;2.60;;;;;;;20.03;76.01;101248.31;5049944;28;20037;-71
2022/06/06 11:47:20;;;;;;;7.55;2.50;;;;;;;20.38;77.82;101240.44;5049353;28;20524;-71
2022/06/06 11:50:27;;;;;;;4.13;2.10;;;;;;;20.65;75.65;101247.47;5030670;28;20152;-72
2022/06/06 11:53:46;;;;;;;3.88;1.80;;;;;;;20.61;73.20;101235.44;5039155;28;20110;-72
2022/06/06 11:56:39;;;;;;;4.60;1.70;;;;;;;21.02;73.32;101237.56;5052230;28;20049;-72
2022/06/06 11:59:53;;;;;;;3.35;1.80;;;;;;;21.21;69.46;101231.94;5052397;28;20407;-74
2022/06/06 12:03:12;;;;;;;4.75;1.73;;;;;;;21.29;68.84;101223.13;5052104;28;20055;-73
2022/06/06 12:06:14;;;;;;;3.72;1.77;;;;;;;21.29;66.60;101217.78;4947583;28;20062;-72
2022/06/06 12:08:58;;;;;;;4.25;1.73;;;;;;;21.33;69.03;101210.28;5051958;28;20132;-74
2022/06/06 12:12:02;;;;;;;5.00;1.63;;;;;;;21.07;64.84;101206.66;5050792;28;20051;-72
2022/06/06 12:14:59;;;;;;;4.07;1.40;;;;;;;20.91;63.76;101217.28;5017853;28;20415;-71
2022/06/06 12:17:43;;;;;;;5.40;1.60;;;;;;;20.42;63.05;101210.59;5051884;28;20049;-73
2022/06/06 12:20:52;;;;;;;2.05;1.30;;;;;;;20.60;65.97;101197.19;5051770;28;20059;-73
2022/06/06 12:23:32;;;;;;;6.38;1.50;;;;;;;20.43;64.15;101193.56;5042293;28;20061;-73
2022/06/06 12:26:23;;;;;;;4.00;1.33;;;;;;;20.23;63.37;101200.94;5051604;28;20049;-73
2022/06/06 12:29:17;;;;;;;5.25;1.50;;;;;;;20.14;64.39;101201.00;5047552;28;20052;-73
2022/06/06 12:31:58;;;;;;;3.90;1.50;;;;;;;20.42;63.81;101217.75;5048588;28;20507;-72